sensor_id;sensor_type;location;lat;lon;timestamp;temperature;humidity
13998;DHT22;7074;51.508;7.018;2023-06-26T00:57:31;25.00;99.90
13998;DHT22;7074;51.508;7.018;2023-06-26T01:00:42;25.00;99.90
13998;DHT22;7074;51.508;7.018;2023-06-26T01:03:29;25.00;99.90
13998;DHT22;7074;51.508;7.018;2023-06-26T01:06:11;25.00;99.90
13998;DHT22;7074;51.508;7.018;2023-06-26T01:09:06;24.90;99.90
13998;DHT22;7074;51.508;7.018;2023-06-26T01:12:11;24.90;99.90
13998;DHT22;7074;51.508;7.018;2023-06-26T01:22:27;24.80;99.90
13998;DHT22;7074;51.508;7.018;2023-06-26T01:25:21;24.80;99.90
13998;DHT22;7074;51.508;7.018;2023-06-26T01:28:18;24.80;99.90
13998;DHT22;7074;51.508;7.018;2023-06-26T01:30:50;24.70;99.90
13998;DHT22;7074;51.508;7.018;2023-06-26T01:33:35;24.60;99.90
13998;DHT22;7074;51.508;7.018;2023-06-26T01:37:29;24.60;99.90
13998;DHT22;7074;51.508;7.018;2023-06-26T01:43:39;24.50;99.90
13998;DHT22;7074;51.508;7.018;2023-06-26T01:46:37;24.50;99.90
13998;DHT22;7074;51.508;7.018;2023-06-26T01:49:54;24.50;99.90
13998;DHT22;7074;51.508;7.018;2023-06-26T01:52:57;24.50;99.90
13998;DHT22;7074;51.508;7.018;2023-06-26T01:55:41;24.40;99.90
13998;DHT22;7074;51.508;7.018;2023-06-26T01:58:46;24.40;99.90
13998;DHT22;7074;51.508;7.018;2023-06-26T02:01:30;24.40;99.90
13998;DHT22;7074;51.508;7.018;2023-06-26T02:04:55;24.30;99.90
13998;DHT22;7074;51.508;7.018;2023-06-26T02:19:45;24.20;99.90
13998;DHT22;7074;51.508;7.018;2023-06-26T02:22:57;24.10;99.90
13998;DHT22;7074;51.508;7.018;2023-06-26T02:25:54;24.10;99.90
13998;DHT22;7074;51.508;7.018;2023-06-26T02:28:52;24.10;99.90
13998;DHT22;7074;51.508;7.018;2023-06-26T02:32:13;24.00;99.90
13998;DHT22;7074;51.508;7.018;2023-06-26T02:43:32;23.90;99.90
13998;DHT22;7074;51.508;7.018;2023-06-26T05:09:40;24.30;99.90
13998;DHT22;7074;51.508;7.018;2023-06-26T05:12:07;24.20;99.90
13998;DHT22;7074;51.508;7.018;2023-06-26T05:14:34;24.40;99.90
13998;DHT22;7074;51.508;7.018;2023-06-26T05:17:02;24.20;99.90
13998;DHT22;7074;51.508;7.018;2023-06-26T05:19:29;24.40;99.90
13998;DHT22;7074;51.508;7.018;2023-06-26T05:21:57;24.50;99.90
13998;DHT22;7074;51.508;7.018;2023-06-26T05:24:25;24.50;99.90
13998;DHT22;7074;51.508;7.018;2023-06-26T05:26:54;24.40;99.90
13998;DHT22;7074;51.508;7.018;2023-06-26T05:29:22;24.40;99.90
13998;DHT22;7074;51.508;7.018;2023-06-26T05:31:51;24.50;99.90
13998;DHT22;7074;51.508;7.018;2023-06-26T05:34:22;24.50;99.90
13998;DHT22;7074;51.508;7.018;2023-06-26T05:36:51;24.50;99.90
13998;DHT22;7074;51.508;7.018;2023-06-26T05:39:20;24.50;99.90
13998;DHT22;7074;51.508;7.018;2023-06-26T05:41:48;24.60;99.90
13998;DHT22;7074;51.508;7.018;2023-06-26T05:44:17;24.50;99.90
13998;DHT22;7074;51.508;7.018;2023-06-26T05:46:46;24.40;99.90
13998;DHT22;7074;51.508;7.018;2023-06-26T05:49:13;24.20;99.90
13998;DHT22;7074;51.508;7.018;2023-06-26T05:51:41;24.20;99.90
13998;DHT22;7074;51.508;7.018;2023-06-26T05:54:08;24.00;99.90
13998;DHT22;7074;51.508;7.018;2023-06-26T05:56:37;24.10;99.90
13998;DHT22;7074;51.508;7.018;2023-06-26T05:59:05;24.00;99.90
13998;DHT22;7074;51.508;7.018;2023-06-26T06:01:35;24.20;99.90
13998;DHT22;7074;51.508;7.018;2023-06-26T06:04:02;24.20;99.90
13998;DHT22;7074;51.508;7.018;2023-06-26T06:06:30;24.50;99.90
13998;DHT22;7074;51.508;7.018;2023-06-26T06:08:57;24.70;99.90
13998;DHT22;7074;51.508;7.018;2023-06-26T06:11:24;24.60;99.90
13998;DHT22;7074;51.508;7.018;2023-06-26T06:13:51;24.60;99.90
13998;DHT22;7074;51.508;7.018;2023-06-26T06:16:18;24.60;99.90
13998;DHT22;7074;51.508;7.018;2023-06-26T06:18:48;24.50;99.90
13998;DHT22;7074;51.508;7.018;2023-06-26T06:21:15;24.30;99.90
13998;DHT22;7074;51.508;7.018;2023-06-26T06:23:43;24.30;99.90
13998;DHT22;7074;51.508;7.018;2023-06-26T06:26:10;24.30;99.90
13998;DHT22;7074;51.508;7.018;2023-06-26T06:28:38;24.40;99.90
13998;DHT22;7074;51.508;7.018;2023-06-26T06:31:06;24.50;99.90
13998;DHT22;7074;51.508;7.018;2023-06-26T06:33:33;24.30;99.90
13998;DHT22;7074;51.508;7.018;2023-06-26T06:36:01;24.20;99.90
13998;DHT22;7074;51.508;7.018;2023-06-26T06:38:29;24.20;99.90
13998;DHT22;7074;51.508;7.018;2023-06-26T06:40:57;24.10;99.90
13998;DHT22;7074;51.508;7.018;2023-06-26T06:43:24;24.00;99.90
13998;DHT22;7074;51.508;7.018;2023-06-26T06:45:51;24.00;99.90
13998;DHT22;7074;51.508;7.018;2023-06-26T06:48:18;24.10;99.90
13998;DHT22;7074;51.508;7.018;2023-06-26T06:50:49;24.20;99.90
13998;DHT22;7074;51.508;7.018;2023-06-26T06:53:39;24.10;99.90
13998;DHT22;7074;51.508;7.018;2023-06-26T06:56:06;24.40;99.90
13998;DHT22;7074;51.508;7.018;2023-06-26T06:58:33;24.50;99.90
13998;DHT22;7074;51.508;7.018;2023-06-26T07:01:01;24.50;99.90
13998;DHT22;7074;51.508;7.018;2023-06-26T07:03:30;24.50;99.90
13998;DHT22;7074;51.508;7.018;2023-06-26T07:05:57;24.70;99.90
13998;DHT22;7074;51.508;7.018;2023-06-26T07:08:24;24.80;99.90
13998;DHT22;7074;51.508;7.018;2023-06-26T07:10:53;25.00;99.90
13998;DHT22;7074;51.508;7.018;2023-06-26T07:13:22;25.00;99.90
13998;DHT22;7074;51.508;7.018;2023-06-26T07:15:49;25.10;99.90
13998;DHT22;7074;51.508;7.018;2023-06-26T07:18:16;25.30;99.90
13998;DHT22;7074;51.508;7.018;2023-06-26T07:20:43;25.20;99.90
13998;DHT22;7074;51.508;7.018;2023-06-26T07:23:11;25.40;99.90
13998;DHT22;7074;51.508;7.018;2023-06-26T07:25:38;25.50;99.90
13998;DHT22;7074;51.508;7.018;2023-06-26T07:28:11;25.70;99.90
13998;DHT22;7074;51.508;7.018;2023-06-26T07:30:39;25.70;99.90
13998;DHT22;7074;51.508;7.018;2023-06-26T07:33:06;25.70;99.90
13998;DHT22;7074;51.508;7.018;2023-06-26T07:35:33;25.70;99.90
13998;DHT22;7074;51.508;7.018;2023-06-26T07:38:00;25.70;99.90
13998;DHT22;7074;51.508;7.018;2023-06-26T07:40:28;25.60;99.90
13998;DHT22;7074;51.508;7.018;2023-06-26T07:42:55;25.70;99.90
13998;DHT22;7074;51.508;7.018;2023-06-26T07:45:25;25.80;99.90
13998;DHT22;7074;51.508;7.018;2023-06-26T07:47:53;26.00;99.90
13998;DHT22;7074;51.508;7.018;2023-06-26T07:50:20;26.00;99.90
13998;DHT22;7074;51.508;7.018;2023-06-26T07:52:49;26.10;99.90
13998;DHT22;7074;51.508;7.018;2023-06-26T07:55:18;26.10;99.90
13998;DHT22;7074;51.508;7.018;2023-06-26T07:57:46;26.00;99.90
13998;DHT22;7074;51.508;7.018;2023-06-26T08:00:13;25.90;99.90
13998;DHT22;7074;51.508;7.018;2023-06-26T08:02:42;26.10;99.90
13998;DHT22;7074;51.508;7.018;2023-06-26T08:05:10;26.10;99.90
13998;DHT22;7074;51.508;7.018;2023-06-26T08:07:37;26.00;99.90
13998;DHT22;7074;51.508;7.018;2023-06-26T08:10:05;26.20;99.90
13998;DHT22;7074;51.508;7.018;2023-06-26T08:12:32;26.40;99.90
13998;DHT22;7074;51.508;7.018;2023-06-26T08:14:59;26.40;99.90
13998;DHT22;7074;51.508;7.018;2023-06-26T08:17:28;26.30;99.90
13998;DHT22;7074;51.508;7.018;2023-06-26T08:19:57;26.20;99.90
13998;DHT22;7074;51.508;7.018;2023-06-26T08:22:24;26.00;99.90
13998;DHT22;7074;51.508;7.018;2023-06-26T08:24:51;26.20;99.90
13998;DHT22;7074;51.508;7.018;2023-06-26T08:27:18;26.50;99.90
13998;DHT22;7074;51.508;7.018;2023-06-26T08:29:45;26.20;99.90
13998;DHT22;7074;51.508;7.018;2023-06-26T08:32:13;26.00;99.90
13998;DHT22;7074;51.508;7.018;2023-06-26T08:34:40;25.90;99.90
13998;DHT22;7074;51.508;7.018;2023-06-26T08:37:09;25.90;99.90
13998;DHT22;7074;51.508;7.018;2023-06-26T08:39:36;26.10;99.90
13998;DHT22;7074;51.508;7.018;2023-06-26T08:42:04;26.30;99.90
13998;DHT22;7074;51.508;7.018;2023-06-26T08:44:31;26.20;99.90
13998;DHT22;7074;51.508;7.018;2023-06-26T08:46:59;26.00;99.90
13998;DHT22;7074;51.508;7.018;2023-06-26T08:49:34;26.00;99.90
13998;DHT22;7074;51.508;7.018;2023-06-26T08:52:10;26.00;99.90
13998;DHT22;7074;51.508;7.018;2023-06-26T08:54:45;25.80;99.90
13998;DHT22;7074;51.508;7.018;2023-06-26T08:57:15;25.70;99.90
13998;DHT22;7074;51.508;7.018;2023-06-26T08:59:43;26.00;99.90
13998;DHT22;7074;51.508;7.018;2023-06-26T09:02:11;26.10;99.90
13998;DHT22;7074;51.508;7.018;2023-06-26T09:04:39;26.00;99.90
13998;DHT22;7074;51.508;7.018;2023-06-26T09:07:07;26.10;99.90
13998;DHT22;7074;51.508;7.018;2023-06-26T09:09:36;26.00;99.90
13998;DHT22;7074;51.508;7.018;2023-06-26T09:12:04;26.00;99.90
13998;DHT22;7074;51.508;7.018;2023-06-26T09:14:32;25.90;99.90
13998;DHT22;7074;51.508;7.018;2023-06-26T09:16:59;25.90;99.90
13998;DHT22;7074;51.508;7.018;2023-06-26T09:19:26;26.00;99.90
13998;DHT22;7074;51.508;7.018;2023-06-26T09:21:54;26.10;99.90
13998;DHT22;7074;51.508;7.018;2023-06-26T09:24:22;26.20;99.90
13998;DHT22;7074;51.508;7.018;2023-06-26T09:26:51;26.20;99.90
13998;DHT22;7074;51.508;7.018;2023-06-26T09:29:19;26.40;99.90
13998;DHT22;7074;51.508;7.018;2023-06-26T09:31:46;26.50;99.90
13998;DHT22;7074;51.508;7.018;2023-06-26T09:34:14;26.60;99.90
13998;DHT22;7074;51.508;7.018;2023-06-26T09:36:41;26.80;99.90
13998;DHT22;7074;51.508;7.018;2023-06-26T09:39:12;26.60;99.90
13998;DHT22;7074;51.508;7.018;2023-06-26T09:41:41;26.60;99.90
13998;DHT22;7074;51.508;7.018;2023-06-26T09:44:13;26.60;99.90
13998;DHT22;7074;51.508;7.018;2023-06-26T09:46:40;26.90;99.90
13998;DHT22;7074;51.508;7.018;2023-06-26T09:49:10;27.10;99.90
13998;DHT22;7074;51.508;7.018;2023-06-26T09:51:39;27.00;99.90
13998;DHT22;7074;51.508;7.018;2023-06-26T09:54:07;27.10;99.90
13998;DHT22;7074;51.508;7.018;2023-06-26T09:56:35;27.40;99.90
13998;DHT22;7074;51.508;7.018;2023-06-26T09:59:04;27.40;99.90
13998;DHT22;7074;51.508;7.018;2023-06-26T10:01:33;27.30;99.90
13998;DHT22;7074;51.508;7.018;2023-06-26T10:04:00;27.00;99.30
13998;DHT22;7074;51.508;7.018;2023-06-26T10:06:32;26.80;99.30
13998;DHT22;7074;51.508;7.018;2023-06-26T10:09:01;26.70;99.70
13998;DHT22;7074;51.508;7.018;2023-06-26T10:11:32;26.60;99.20
13998;DHT22;7074;51.508;7.018;2023-06-26T10:14:03;26.40;98.70
13998;DHT22;7074;51.508;7.018;2023-06-26T10:16:34;26.30;97.90
13998;DHT22;7074;51.508;7.018;2023-06-26T10:19:06;26.30;98.00
13998;DHT22;7074;51.508;7.018;2023-06-26T10:21:37;26.10;98.80
13998;DHT22;7074;51.508;7.018;2023-06-26T10:24:06;26.40;98.90
13998;DHT22;7074;51.508;7.018;2023-06-26T10:26:38;26.60;98.60
13998;DHT22;7074;51.508;7.018;2023-06-26T10:29:06;26.80;99.00
13998;DHT22;7074;51.508;7.018;2023-06-26T10:31:37;27.00;99.30
13998;DHT22;7074;51.508;7.018;2023-06-26T10:34:05;27.30;97.00
13998;DHT22;7074;51.508;7.018;2023-06-26T10:36:32;27.50;96.30
13998;DHT22;7074;51.508;7.018;2023-06-26T10:39:04;27.50;95.90
13998;DHT22;7074;51.508;7.018;2023-06-26T10:41:37;27.70;94.70
13998;DHT22;7074;51.508;7.018;2023-06-26T10:44:09;27.90;93.90
13998;DHT22;7074;51.508;7.018;2023-06-26T10:46:50;27.90;94.20
13998;DHT22;7074;51.508;7.018;2023-06-26T10:49:18;28.20;92.90
13998;DHT22;7074;51.508;7.018;2023-06-26T10:51:48;28.10;93.50
13998;DHT22;7074;51.508;7.018;2023-06-26T10:54:16;28.10;94.30
13998;DHT22;7074;51.508;7.018;2023-06-26T10:56:46;27.80;94.80
13998;DHT22;7074;51.508;7.018;2023-06-26T10:59:15;27.50;95.60
13998;DHT22;7074;51.508;7.018;2023-06-26T11:01:43;26.90;97.00
13998;DHT22;7074;51.508;7.018;2023-06-26T11:04:14;26.80;97.40
13998;DHT22;7074;51.508;7.018;2023-06-26T11:06:45;26.60;97.80
13998;DHT22;7074;51.508;7.018;2023-06-26T11:09:17;26.30;98.60
13998;DHT22;7074;51.508;7.018;2023-06-26T11:11:58;26.40;99.00
13998;DHT22;7074;51.508;7.018;2023-06-26T11:14:32;26.80;97.30
13998;DHT22;7074;51.508;7.018;2023-06-26T11:17:03;27.00;97.70
13998;DHT22;7074;51.508;7.018;2023-06-26T11:19:32;27.20;97.00
13998;DHT22;7074;51.508;7.018;2023-06-26T11:22:02;27.10;96.20
13998;DHT22;7074;51.508;7.018;2023-06-26T11:24:30;26.90;95.40
13998;DHT22;7074;51.508;7.018;2023-06-26T11:27:02;26.70;94.00
13998;DHT22;7074;51.508;7.018;2023-06-26T11:29:32;26.70;92.80
13998;DHT22;7074;51.508;7.018;2023-06-26T11:32:01;26.60;92.50
13998;DHT22;7074;51.508;7.018;2023-06-26T11:34:33;26.70;91.30
13998;DHT22;7074;51.508;7.018;2023-06-26T11:37:01;27.00;90.80
13998;DHT22;7074;51.508;7.018;2023-06-26T11:39:29;26.90;87.80
13998;DHT22;7074;51.508;7.018;2023-06-26T11:41:59;27.10;88.70
13998;DHT22;7074;51.508;7.018;2023-06-26T11:44:30;27.10;89.40
13998;DHT22;7074;51.508;7.018;2023-06-26T11:46:58;27.20;88.80
13998;DHT22;7074;51.508;7.018;2023-06-26T11:49:26;27.20;88.80
13998;DHT22;7074;51.508;7.018;2023-06-26T11:51:56;27.10;89.30
13998;DHT22;7074;51.508;7.018;2023-06-26T11:54:25;26.90;88.40
13998;DHT22;7074;51.508;7.018;2023-06-26T11:56:55;27.10;84.80
13998;DHT22;7074;51.508;7.018;2023-06-26T11:59:24;27.40;84.30
13998;DHT22;7074;51.508;7.018;2023-06-26T12:01:53;27.50;81.00
13998;DHT22;7074;51.508;7.018;2023-06-26T12:04:21;27.50;80.20
13998;DHT22;7074;51.508;7.018;2023-06-26T12:06:50;27.60;80.00
13998;DHT22;7074;51.508;7.018;2023-06-26T12:09:25;27.60;76.50
13998;DHT22;7074;51.508;7.018;2023-06-26T12:11:55;27.50;74.00
13998;DHT22;7074;51.508;7.018;2023-06-26T12:14:24;27.50;74.40
13998;DHT22;7074;51.508;7.018;2023-06-26T12:16:54;27.50;72.60
13998;DHT22;7074;51.508;7.018;2023-06-26T12:19:25;27.80;72.00
13998;DHT22;7074;51.508;7.018;2023-06-26T12:21:53;28.00;71.00
13998;DHT22;7074;51.508;7.018;2023-06-26T12:24:24;28.10;68.10
13998;DHT22;7074;51.508;7.018;2023-06-26T12:26:54;28.00;65.70
13998;DHT22;7074;51.508;7.018;2023-06-26T12:29:30;28.10;66.80
13998;DHT22;7074;51.508;7.018;2023-06-26T12:31:58;27.80;61.60
13998;DHT22;7074;51.508;7.018;2023-06-26T12:34:27;27.90;60.30
13998;DHT22;7074;51.508;7.018;2023-06-26T12:37:00;27.90;59.20
13998;DHT22;7074;51.508;7.018;2023-06-26T12:39:30;27.80;60.00
13998;DHT22;7074;51.508;7.018;2023-06-26T12:42:14;27.60;61.00
13998;DHT22;7074;51.508;7.018;2023-06-26T12:44:42;27.40;62.00
13998;DHT22;7074;51.508;7.018;2023-06-26T12:47:09;27.30;63.90
13998;DHT22;7074;51.508;7.018;2023-06-26T12:49:40;27.20;62.50
13998;DHT22;7074;51.508;7.018;2023-06-26T12:52:09;26.90;62.60
13998;DHT22;7074;51.508;7.018;2023-06-26T12:54:39;26.80;62.40
13998;DHT22;7074;51.508;7.018;2023-06-26T12:57:07;26.90;64.70
13998;DHT22;7074;51.508;7.018;2023-06-26T12:59:36;27.10;62.60
13998;DHT22;7074;51.508;7.018;2023-06-26T13:02:04;27.10;62.70
13998;DHT22;7074;51.508;7.018;2023-06-26T13:04:32;27.00;61.00
13998;DHT22;7074;51.508;7.018;2023-06-26T13:06:59;27.10;59.70
13998;DHT22;7074;51.508;7.018;2023-06-26T13:09:31;27.20;60.20
13998;DHT22;7074;51.508;7.018;2023-06-26T13:12:00;26.80;60.70
13998;DHT22;7074;51.508;7.018;2023-06-26T13:14:29;27.00;60.80
13998;DHT22;7074;51.508;7.018;2023-06-26T13:16:57;27.20;59.90
13998;DHT22;7074;51.508;7.018;2023-06-26T13:19:24;27.50;58.50
13998;DHT22;7074;51.508;7.018;2023-06-26T13:21:52;27.80;58.20
13998;DHT22;7074;51.508;7.018;2023-06-26T13:24:19;27.90;57.00
13998;DHT22;7074;51.508;7.018;2023-06-26T13:26:46;28.00;55.40
13998;DHT22;7074;51.508;7.018;2023-06-26T13:29:16;27.80;55.10
13998;DHT22;7074;51.508;7.018;2023-06-26T13:31:43;27.90;55.10
13998;DHT22;7074;51.508;7.018;2023-06-26T13:34:20;27.80;55.40
13998;DHT22;7074;51.508;7.018;2023-06-26T13:36:48;28.00;54.60
13998;DHT22;7074;51.508;7.018;2023-06-26T13:39:15;27.80;54.00
13998;DHT22;7074;51.508;7.018;2023-06-26T13:41:43;27.90;53.90
13998;DHT22;7074;51.508;7.018;2023-06-26T13:44:10;28.10;53.60
13998;DHT22;7074;51.508;7.018;2023-06-26T13:46:40;27.90;52.80
13998;DHT22;7074;51.508;7.018;2023-06-26T13:49:08;27.70;52.70
13998;DHT22;7074;51.508;7.018;2023-06-26T13:51:36;27.50;52.00
13998;DHT22;7074;51.508;7.018;2023-06-26T13:54:03;27.60;53.80
13998;DHT22;7074;51.508;7.018;2023-06-26T13:56:32;27.60;53.00
13998;DHT22;7074;51.508;7.018;2023-06-26T13:59:01;27.30;52.30
13998;DHT22;7074;51.508;7.018;2023-06-26T14:01:28;27.50;52.90
13998;DHT22;7074;51.508;7.018;2023-06-26T14:03:58;27.60;51.90
13998;DHT22;7074;51.508;7.018;2023-06-26T14:06:26;27.60;52.50
13998;DHT22;7074;51.508;7.018;2023-06-26T14:08:53;27.80;50.10
13998;DHT22;7074;51.508;7.018;2023-06-26T14:11:21;28.00;49.60
13998;DHT22;7074;51.508;7.018;2023-06-26T14:13:48;28.10;49.40
13998;DHT22;7074;51.508;7.018;2023-06-26T14:16:16;28.10;50.00
13998;DHT22;7074;51.508;7.018;2023-06-26T14:18:44;28.40;49.90
13998;DHT22;7074;51.508;7.018;2023-06-26T14:21:13;28.40;50.00
13998;DHT22;7074;51.508;7.018;2023-06-26T14:23:40;28.60;49.70
13998;DHT22;7074;51.508;7.018;2023-06-26T14:26:08;28.50;50.10
13998;DHT22;7074;51.508;7.018;2023-06-26T14:28:36;28.30;50.90
13998;DHT22;7074;51.508;7.018;2023-06-26T14:31:03;28.30;52.00
13998;DHT22;7074;51.508;7.018;2023-06-26T14:33:30;28.20;52.90
13998;DHT22;7074;51.508;7.018;2023-06-26T14:36:09;28.30;51.70
13998;DHT22;7074;51.508;7.018;2023-06-26T14:38:37;28.40;50.70
13998;DHT22;7074;51.508;7.018;2023-06-26T14:41:05;28.40;48.40
13998;DHT22;7074;51.508;7.018;2023-06-26T14:43:32;28.00;47.80
13998;DHT22;7074;51.508;7.018;2023-06-26T14:45:59;28.20;48.20
13998;DHT22;7074;51.508;7.018;2023-06-26T14:48:27;28.00;47.90
13998;DHT22;7074;51.508;7.018;2023-06-26T14:50:54;27.90;49.00
13998;DHT22;7074;51.508;7.018;2023-06-26T14:53:21;27.90;49.60
13998;DHT22;7074;51.508;7.018;2023-06-26T14:55:50;27.80;48.90
13998;DHT22;7074;51.508;7.018;2023-06-26T14:58:17;27.60;49.30
13998;DHT22;7074;51.508;7.018;2023-06-26T15:00:45;27.50;50.20
13998;DHT22;7074;51.508;7.018;2023-06-26T15:03:12;27.40;50.00
13998;DHT22;7074;51.508;7.018;2023-06-26T15:05:40;27.50;50.50
13998;DHT22;7074;51.508;7.018;2023-06-26T15:08:07;27.40;50.70
13998;DHT22;7074;51.508;7.018;2023-06-26T15:10:35;27.30;51.00
13998;DHT22;7074;51.508;7.018;2023-06-26T15:13:04;27.50;51.80
13998;DHT22;7074;51.508;7.018;2023-06-26T15:15:32;27.60;52.90
13998;DHT22;7074;51.508;7.018;2023-06-26T15:17:59;27.50;54.30
13998;DHT22;7074;51.508;7.018;2023-06-26T15:20:27;27.20;55.40
13998;DHT22;7074;51.508;7.018;2023-06-26T15:22:54;27.40;56.20
13998;DHT22;7074;51.508;7.018;2023-06-26T15:25:22;27.50;56.40
13998;DHT22;7074;51.508;7.018;2023-06-26T15:27:49;27.80;56.50
13998;DHT22;7074;51.508;7.018;2023-06-26T15:30:18;27.90;55.10
13998;DHT22;7074;51.508;7.018;2023-06-26T15:32:45;27.90;55.30
13998;DHT22;7074;51.508;7.018;2023-06-26T15:35:13;28.00;55.70
13998;DHT22;7074;51.508;7.018;2023-06-26T15:37:40;27.90;54.90
13998;DHT22;7074;51.508;7.018;2023-06-26T15:40:08;27.80;53.90
13998;DHT22;7074;51.508;7.018;2023-06-26T15:42:45;27.70;54.00
13998;DHT22;7074;51.508;7.018;2023-06-26T15:45:12;27.60;53.90
13998;DHT22;7074;51.508;7.018;2023-06-26T15:47:41;27.40;52.80
13998;DHT22;7074;51.508;7.018;2023-06-26T15:50:09;27.20;52.70
13998;DHT22;7074;51.508;7.018;2023-06-26T15:52:37;27.00;52.60
13998;DHT22;7074;51.508;7.018;2023-06-26T15:55:05;26.80;53.00
13998;DHT22;7074;51.508;7.018;2023-06-26T15:57:33;26.50;52.90
13998;DHT22;7074;51.508;7.018;2023-06-26T16:00:00;26.40;53.70
13998;DHT22;7074;51.508;7.018;2023-06-26T16:02:38;26.20;53.70
13998;DHT22;7074;51.508;7.018;2023-06-26T16:05:07;26.10;54.10
13998;DHT22;7074;51.508;7.018;2023-06-26T16:07:35;26.20;54.10
13998;DHT22;7074;51.508;7.018;2023-06-26T16:10:03;26.00;53.80
13998;DHT22;7074;51.508;7.018;2023-06-26T16:12:31;26.00;53.50
13998;DHT22;7074;51.508;7.018;2023-06-26T16:14:58;25.90;53.70
13998;DHT22;7074;51.508;7.018;2023-06-26T16:17:25;25.90;54.30
13998;DHT22;7074;51.508;7.018;2023-06-26T16:19:52;25.90;54.90
13998;DHT22;7074;51.508;7.018;2023-06-26T16:22:21;25.90;55.20
13998;DHT22;7074;51.508;7.018;2023-06-26T16:24:48;25.80;55.50
13998;DHT22;7074;51.508;7.018;2023-06-26T16:27:15;25.80;56.20
13998;DHT22;7074;51.508;7.018;2023-06-26T16:29:43;26.00;56.70
13998;DHT22;7074;51.508;7.018;2023-06-26T16:32:10;26.00;56.70
13998;DHT22;7074;51.508;7.018;2023-06-26T16:34:37;25.80;56.40
13998;DHT22;7074;51.508;7.018;2023-06-26T16:37:04;25.80;56.90
13998;DHT22;7074;51.508;7.018;2023-06-26T16:39:35;25.60;56.50
13998;DHT22;7074;51.508;7.018;2023-06-26T16:42:03;25.40;56.80
13998;DHT22;7074;51.508;7.018;2023-06-26T16:44:30;25.20;57.10
13998;DHT22;7074;51.508;7.018;2023-06-26T16:46:58;25.10;57.70
13998;DHT22;7074;51.508;7.018;2023-06-26T16:49:26;25.10;57.20
13998;DHT22;7074;51.508;7.018;2023-06-26T16:51:54;25.00;57.50
13998;DHT22;7074;51.508;7.018;2023-06-26T16:54:22;25.10;58.10
13998;DHT22;7074;51.508;7.018;2023-06-26T16:56:52;25.00;58.20
13998;DHT22;7074;51.508;7.018;2023-06-26T16:59:19;25.00;58.80
13998;DHT22;7074;51.508;7.018;2023-06-26T17:01:46;25.00;58.90
13998;DHT22;7074;51.508;7.018;2023-06-26T17:04:14;24.90;58.60
13998;DHT22;7074;51.508;7.018;2023-06-26T17:06:41;25.10;59.10
13998;DHT22;7074;51.508;7.018;2023-06-26T17:09:09;25.10;59.30
13998;DHT22;7074;51.508;7.018;2023-06-26T17:11:37;25.20;57.90
13998;DHT22;7074;51.508;7.018;2023-06-26T17:14:08;25.20;57.00
13998;DHT22;7074;51.508;7.018;2023-06-26T17:16:35;25.10;56.90
13998;DHT22;7074;51.508;7.018;2023-06-26T17:19:02;25.10;57.60
13998;DHT22;7074;51.508;7.018;2023-06-26T17:21:31;25.00;57.60
13998;DHT22;7074;51.508;7.018;2023-06-26T17:23:58;25.00;58.20
13998;DHT22;7074;51.508;7.018;2023-06-26T17:26:26;25.10;58.40
13998;DHT22;7074;51.508;7.018;2023-06-26T17:28:53;25.20;58.40
13998;DHT22;7074;51.508;7.018;2023-06-26T17:31:21;25.40;58.50
13998;DHT22;7074;51.508;7.018;2023-06-26T17:33:49;25.50;58.40
13998;DHT22;7074;51.508;7.018;2023-06-26T17:36:16;25.40;58.10
13998;DHT22;7074;51.508;7.018;2023-06-26T17:38:43;25.50;58.80
13998;DHT22;7074;51.508;7.018;2023-06-26T17:41:10;25.70;59.00
13998;DHT22;7074;51.508;7.018;2023-06-26T17:43:37;25.80;59.10
13998;DHT22;7074;51.508;7.018;2023-06-26T17:46:05;25.60;59.30
13998;DHT22;7074;51.508;7.018;2023-06-26T17:48:33;25.50;59.10
13998;DHT22;7074;51.508;7.018;2023-06-26T17:51:00;25.30;58.20
13998;DHT22;7074;51.508;7.018;2023-06-26T17:53:28;25.20;59.20
13998;DHT22;7074;51.508;7.018;2023-06-26T17:55:56;25.20;59.70
13998;DHT22;7074;51.508;7.018;2023-06-26T17:58:23;25.10;60.40
13998;DHT22;7074;51.508;7.018;2023-06-26T18:00:50;25.00;60.90
13998;DHT22;7074;51.508;7.018;2023-06-26T18:03:17;24.90;59.90
13998;DHT22;7074;51.508;7.018;2023-06-26T18:05:46;24.90;59.80
13998;DHT22;7074;51.508;7.018;2023-06-26T18:08:14;24.80;59.70
13998;DHT22;7074;51.508;7.018;2023-06-26T18:10:41;24.80;60.10
13998;DHT22;7074;51.508;7.018;2023-06-26T18:13:09;24.80;60.60
13998;DHT22;7074;51.508;7.018;2023-06-26T18:15:36;24.80;60.90
13998;DHT22;7074;51.508;7.018;2023-06-26T18:18:03;24.90;60.70
13998;DHT22;7074;51.508;7.018;2023-06-26T18:20:31;24.80;59.50
13998;DHT22;7074;51.508;7.018;2023-06-26T18:23:00;24.80;59.20
13998;DHT22;7074;51.508;7.018;2023-06-26T18:25:28;24.60;57.80
13998;DHT22;7074;51.508;7.018;2023-06-26T18:27:55;24.60;58.80
13998;DHT22;7074;51.508;7.018;2023-06-26T18:30:23;24.50;58.20
13998;DHT22;7074;51.508;7.018;2023-06-26T18:32:50;24.50;58.00
13998;DHT22;7074;51.508;7.018;2023-06-26T18:35:17;24.50;58.60
13998;DHT22;7074;51.508;7.018;2023-06-26T18:37:44;24.30;58.50
13998;DHT22;7074;51.508;7.018;2023-06-26T18:40:14;24.30;58.70
13998;DHT22;7074;51.508;7.018;2023-06-26T18:42:43;24.20;58.80
13998;DHT22;7074;51.508;7.018;2023-06-26T18:45:11;24.20;59.30
13998;DHT22;7074;51.508;7.018;2023-06-26T18:47:39;24.00;59.90
13998;DHT22;7074;51.508;7.018;2023-06-26T18:50:07;23.90;60.00
13998;DHT22;7074;51.508;7.018;2023-06-26T18:52:34;24.00;61.20
13998;DHT22;7074;51.508;7.018;2023-06-26T18:55:02;24.00;61.30
13998;DHT22;7074;51.508;7.018;2023-06-26T18:57:31;23.90;60.90
13998;DHT22;7074;51.508;7.018;2023-06-26T18:59:58;23.90;61.30
13998;DHT22;7074;51.508;7.018;2023-06-26T19:02:27;23.80;61.00
13998;DHT22;7074;51.508;7.018;2023-06-26T19:04:54;23.70;61.10
13998;DHT22;7074;51.508;7.018;2023-06-26T19:07:22;23.70;62.10
13998;DHT22;7074;51.508;7.018;2023-06-26T19:09:49;23.60;62.50
13998;DHT22;7074;51.508;7.018;2023-06-26T19:12:17;23.70;63.20
13998;DHT22;7074;51.508;7.018;2023-06-26T19:14:46;23.50;63.20
13998;DHT22;7074;51.508;7.018;2023-06-26T19:17:15;23.50;64.00
13998;DHT22;7074;51.508;7.018;2023-06-26T19:19:43;23.40;63.50
13998;DHT22;7074;51.508;7.018;2023-06-26T19:22:11;23.30;64.00
13998;DHT22;7074;51.508;7.018;2023-06-26T19:24:38;23.30;63.60
13998;DHT22;7074;51.508;7.018;2023-06-26T19:27:06;23.30;64.30
13998;DHT22;7074;51.508;7.018;2023-06-26T19:29:33;23.30;64.30
13998;DHT22;7074;51.508;7.018;2023-06-26T19:32:02;23.30;64.70
13998;DHT22;7074;51.508;7.018;2023-06-26T19:34:30;23.20;64.40
13998;DHT22;7074;51.508;7.018;2023-06-26T19:36:57;23.20;64.40
13998;DHT22;7074;51.508;7.018;2023-06-26T19:39:24;23.20;65.20
13998;DHT22;7074;51.508;7.018;2023-06-26T19:41:52;23.20;65.60
13998;DHT22;7074;51.508;7.018;2023-06-26T19:44:19;23.20;65.90
13998;DHT22;7074;51.508;7.018;2023-06-26T19:46:46;23.20;66.40
13998;DHT22;7074;51.508;7.018;2023-06-26T19:49:15;23.10;66.10
13998;DHT22;7074;51.508;7.018;2023-06-26T19:51:42;23.10;65.50
13998;DHT22;7074;51.508;7.018;2023-06-26T19:54:10;23.10;66.30
13998;DHT22;7074;51.508;7.018;2023-06-26T19:56:37;23.00;66.10